sensor_id;sensor_type;location;lat;lon;timestamp;P1;durP1;ratioP1;P2;durP2;ratioP2
50309;SDS011;36207;51.850;21.698;2023-08-06T00:00:25;21.50;;;15.70;;
50309;SDS011;36207;51.850;21.698;2023-08-06T00:03:11;19.40;;;15.80;;
50309;SDS011;36207;51.850;21.698;2023-08-06T00:05:41;21.90;;;17.10;;
50309;SDS011;36207;51.850;21.698;2023-08-06T00:08:08;20.50;;;15.90;;
50309;SDS011;36207;51.850;21.698;2023-08-06T00:10:34;22.90;;;15.00;;
50309;SDS011;36207;51.850;21.698;2023-08-06T00:13:00;19.10;;;15.00;;
50309;SDS011;36207;51.850;21.698;2023-08-06T00:15:25;18.50;;;14.60;;
50309;SDS011;36207;51.850;21.698;2023-08-06T00:17:51;22.10;;;15.10;;
50309;SDS011;36207;51.850;21.698;2023-08-06T00:20:17;19.30;;;15.30;;
50309;SDS011;36207;51.850;21.698;2023-08-06T00:22:43;18.00;;;14.60;;
50309;SDS011;36207;51.850;21.698;2023-08-06T00:25:09;21.20;;;14.30;;
50309;SDS011;36207;51.850;21.698;2023-08-06T00:27:35;20.10;;;13.20;;
50309;SDS011;36207;51.850;21.698;2023-08-06T00:30:01;18.40;;;14.00;;
50309;SDS011;36207;51.850;21.698;2023-08-06T00:32:28;17.50;;;14.10;;
50309;SDS011;36207;51.850;21.698;2023-08-06T00:34:53;21.70;;;14.20;;
50309;SDS011;36207;51.850;21.698;2023-08-06T00:37:19;17.70;;;13.60;;
50309;SDS011;36207;51.850;21.698;2023-08-06T00:39:45;21.40;;;13.60;;
50309;SDS011;36207;51.850;21.698;2023-08-06T00:42:11;16.00;;;13.40;;
50309;SDS011;36207;51.850;21.698;2023-08-06T00:44:38;18.20;;;14.30;;
50309;SDS011;36207;51.850;21.698;2023-08-06T00:47:05;18.70;;;14.00;;
50309;SDS011;36207;51.850;21.698;2023-08-06T00:49:33;18.40;;;13.90;;
50309;SDS011;36207;51.850;21.698;2023-08-06T00:52:02;19.20;;;13.70;;
50309;SDS011;36207;51.850;21.698;2023-08-06T00:54:29;17.00;;;14.00;;
50309;SDS011;36207;51.850;21.698;2023-08-06T00:56:56;18.30;;;14.20;;
50309;SDS011;36207;51.850;21.698;2023-08-06T00:59:24;18.90;;;14.30;;
50309;SDS011;36207;51.850;21.698;2023-08-06T01:01:51;16.10;;;13.40;;
50309;SDS011;36207;51.850;21.698;2023-08-06T01:04:17;14.80;;;12.60;;
50309;SDS011;36207;51.850;21.698;2023-08-06T01:11:54;19.30;;;13.70;;
50309;SDS011;36207;51.850;21.698;2023-08-06T01:14:33;17.60;;;12.80;;
50309;SDS011;36207;51.850;21.698;2023-08-06T01:17:17;17.20;;;13.30;;
50309;SDS011;36207;51.850;21.698;2023-08-06T01:19:44;16.80;;;13.70;;
50309;SDS011;36207;51.850;21.698;2023-08-06T01:22:09;17.30;;;13.90;;
50309;SDS011;36207;51.850;21.698;2023-08-06T01:24:35;18.10;;;13.80;;
50309;SDS011;36207;51.850;21.698;2023-08-06T01:27:06;19.10;;;13.20;;
50309;SDS011;36207;51.850;21.698;2023-08-06T01:30:02;16.60;;;13.50;;
50309;SDS011;36207;51.850;21.698;2023-08-06T01:32:34;17.50;;;14.40;;
50309;SDS011;36207;51.850;21.698;2023-08-06T01:35:01;17.40;;;13.50;;
50309;SDS011;36207;51.850;21.698;2023-08-06T01:37:29;18.60;;;13.70;;
50309;SDS011;36207;51.850;21.698;2023-08-06T01:39:56;15.70;;;13.40;;
50309;SDS011;36207;51.850;21.698;2023-08-06T01:42:22;17.50;;;12.80;;
50309;SDS011;36207;51.850;21.698;2023-08-06T01:44:47;18.70;;;12.20;;
50309;SDS011;36207;51.850;21.698;2023-08-06T01:47:13;16.60;;;12.00;;
50309;SDS011;36207;51.850;21.698;2023-08-06T01:49:39;19.10;;;12.40;;
50309;SDS011;36207;51.850;21.698;2023-08-06T01:52:05;22.30;;;12.60;;
50309;SDS011;36207;51.850;21.698;2023-08-06T01:54:32;17.70;;;12.10;;
50309;SDS011;36207;51.850;21.698;2023-08-06T01:56:57;20.10;;;13.20;;
50309;SDS011;36207;51.850;21.698;2023-08-06T01:59:24;16.30;;;13.40;;
50309;SDS011;36207;51.850;21.698;2023-08-06T02:01:50;15.90;;;12.90;;
50309;SDS011;36207;51.850;21.698;2023-08-06T02:04:16;17.50;;;12.70;;
50309;SDS011;36207;51.850;21.698;2023-08-06T02:06:42;20.00;;;13.20;;
50309;SDS011;36207;51.850;21.698;2023-08-06T02:09:08;23.60;;;13.70;;
50309;SDS011;36207;51.850;21.698;2023-08-06T02:11:33;17.70;;;13.70;;
50309;SDS011;36207;51.850;21.698;2023-08-06T02:13:59;18.30;;;13.30;;
50309;SDS011;36207;51.850;21.698;2023-08-06T02:16:25;18.60;;;13.20;;
50309;SDS011;36207;51.850;21.698;2023-08-06T02:18:51;17.90;;;12.40;;
50309;SDS011;36207;51.850;21.698;2023-08-06T02:21:17;17.50;;;13.20;;
50309;SDS011;36207;51.850;21.698;2023-08-06T02:23:43;19.60;;;13.00;;
50309;SDS011;36207;51.850;21.698;2023-08-06T02:26:09;15.60;;;12.40;;
50309;SDS011;36207;51.850;21.698;2023-08-06T02:28:35;15.80;;;12.70;;
50309;SDS011;36207;51.850;21.698;2023-08-06T02:31:01;15.30;;;12.20;;
50309;SDS011;36207;51.850;21.698;2023-08-06T02:33:27;18.50;;;13.10;;
50309;SDS011;36207;51.850;21.698;2023-08-06T02:35:59;16.10;;;13.00;;
50309;SDS011;36207;51.850;21.698;2023-08-06T02:38:27;17.30;;;13.20;;
50309;SDS011;36207;51.850;21.698;2023-08-06T02:40:53;16.80;;;12.70;;
50309;SDS011;36207;51.850;21.698;2023-08-06T02:43:19;16.60;;;12.70;;
50309;SDS011;36207;51.850;21.698;2023-08-06T02:45:45;15.60;;;12.50;;
50309;SDS011;36207;51.850;21.698;2023-08-06T02:48:10;19.40;;;12.90;;
50309;SDS011;36207;51.850;21.698;2023-08-06T02:50:39;18.40;;;13.30;;
50309;SDS011;36207;51.850;21.698;2023-08-06T02:53:07;15.00;;;13.20;;
50309;SDS011;36207;51.850;21.698;2023-08-06T02:55:34;15.70;;;13.00;;
50309;SDS011;36207;51.850;21.698;2023-08-06T02:58:00;16.40;;;12.70;;
50309;SDS011;36207;51.850;21.698;2023-08-06T03:00:27;16.20;;;13.40;;
50309;SDS011;36207;51.850;21.698;2023-08-06T03:02:53;19.90;;;12.90;;
50309;SDS011;36207;51.850;21.698;2023-08-06T03:05:20;17.10;;;13.20;;
50309;SDS011;36207;51.850;21.698;2023-08-06T03:07:46;17.90;;;12.40;;
50309;SDS011;36207;51.850;21.698;2023-08-06T03:10:12;17.50;;;13.50;;
50309;SDS011;36207;51.850;21.698;2023-08-06T03:12:38;16.60;;;12.60;;
50309;SDS011;36207;51.850;21.698;2023-08-06T03:15:05;16.00;;;13.30;;
50309;SDS011;36207;51.850;21.698;2023-08-06T03:17:31;14.60;;;12.70;;
50309;SDS011;36207;51.850;21.698;2023-08-06T03:19:57;16.00;;;12.10;;
50309;SDS011;36207;51.850;21.698;2023-08-06T03:22:23;16.60;;;12.20;;
50309;SDS011;36207;51.850;21.698;2023-08-06T03:24:51;16.10;;;12.00;;
50309;SDS011;36207;51.850;21.698;2023-08-06T03:27:18;15.30;;;11.80;;
50309;SDS011;36207;51.850;21.698;2023-08-06T03:29:43;16.40;;;12.60;;
50309;SDS011;36207;51.850;21.698;2023-08-06T03:32:09;16.70;;;12.10;;
50309;SDS011;36207;51.850;21.698;2023-08-06T03:34:35;14.60;;;12.00;;
50309;SDS011;36207;51.850;21.698;2023-08-06T03:37:01;16.90;;;12.00;;
50309;SDS011;36207;51.850;21.698;2023-08-06T03:39:27;15.60;;;11.60;;
50309;SDS011;36207;51.850;21.698;2023-08-06T03:41:53;13.80;;;11.70;;
50309;SDS011;36207;51.850;21.698;2023-08-06T03:44:19;15.30;;;11.20;;
50309;SDS011;36207;51.850;21.698;2023-08-06T03:46:44;19.20;;;11.30;;
50309;SDS011;36207;51.850;21.698;2023-08-06T03:49:10;14.10;;;11.60;;
50309;SDS011;36207;51.850;21.698;2023-08-06T03:51:36;21.30;;;12.30;;
50309;SDS011;36207;51.850;21.698;2023-08-06T03:54:02;15.60;;;11.80;;
50309;SDS011;36207;51.850;21.698;2023-08-06T03:56:28;16.40;;;11.40;;
50309;SDS011;36207;51.850;21.698;2023-08-06T03:58:54;16.60;;;11.60;;
50309;SDS011;36207;51.850;21.698;2023-08-06T04:01:20;15.90;;;11.60;;
50309;SDS011;36207;51.850;21.698;2023-08-06T04:03:46;14.70;;;10.70;;
50309;SDS011;36207;51.850;21.698;2023-08-06T04:06:12;12.90;;;10.30;;
50309;SDS011;36207;51.850;21.698;2023-08-06T04:08:37;13.10;;;10.50;;
50309;SDS011;36207;51.850;21.698;2023-08-06T04:11:03;17.10;;;10.00;;
50309;SDS011;36207;51.850;21.698;2023-08-06T04:13:29;14.60;;;9.40;;
50309;SDS011;36207;51.850;21.698;2023-08-06T04:16:00;16.50;;;10.00;;
50309;SDS011;36207;51.850;21.698;2023-08-06T04:18:26;13.90;;;9.80;;
50309;SDS011;36207;51.850;21.698;2023-08-06T04:20:52;12.80;;;9.60;;
50309;SDS011;36207;51.850;21.698;2023-08-06T04:23:20;14.40;;;9.40;;
50309;SDS011;36207;51.850;21.698;2023-08-06T04:25:46;11.20;;;7.90;;
50309;SDS011;36207;51.850;21.698;2023-08-06T04:28:12;11.70;;;8.70;;
50309;SDS011;36207;51.850;21.698;2023-08-06T04:30:38;12.20;;;8.90;;
50309;SDS011;36207;51.850;21.698;2023-08-06T04:33:04;15.30;;;8.80;;
50309;SDS011;36207;51.850;21.698;2023-08-06T04:35:30;14.10;;;8.30;;
50309;SDS011;36207;51.850;21.698;2023-08-06T04:37:56;13.60;;;8.40;;
50309;SDS011;36207;51.850;21.698;2023-08-06T04:40:22;17.70;;;8.50;;
50309;SDS011;36207;51.850;21.698;2023-08-06T04:42:48;18.30;;;8.70;;
50309;SDS011;36207;51.850;21.698;2023-08-06T04:45:14;12.10;;;9.00;;
50309;SDS011;36207;51.850;21.698;2023-08-06T04:47:40;11.00;;;8.10;;
50309;SDS011;36207;51.850;21.698;2023-08-06T04:50:06;12.30;;;8.40;;
50309;SDS011;36207;51.850;21.698;2023-08-06T04:52:32;12.60;;;8.40;;
50309;SDS011;36207;51.850;21.698;2023-08-06T04:54:58;11.00;;;8.10;;
50309;SDS011;36207;51.850;21.698;2023-08-06T04:57:24;15.90;;;8.90;;
50309;SDS011;36207;51.850;21.698;2023-08-06T04:59:50;13.50;;;7.80;;
50309;SDS011;36207;51.850;21.698;2023-08-06T05:02:16;18.60;;;8.10;;
50309;SDS011;36207;51.850;21.698;2023-08-06T05:04:42;14.50;;;7.90;;
50309;SDS011;36207;51.850;21.698;2023-08-06T05:07:08;14.60;;;8.10;;
50309;SDS011;36207;51.850;21.698;2023-08-06T05:09:36;11.80;;;8.10;;
50309;SDS011;36207;51.850;21.698;2023-08-06T05:12:03;15.20;;;8.50;;
50309;SDS011;36207;51.850;21.698;2023-08-06T05:14:29;12.80;;;7.80;;
50309;SDS011;36207;51.850;21.698;2023-08-06T05:16:55;14.60;;;8.10;;
50309;SDS011;36207;51.850;21.698;2023-08-06T05:19:21;13.00;;;7.80;;
50309;SDS011;36207;51.850;21.698;2023-08-06T05:21:47;12.10;;;7.70;;
50309;SDS011;36207;51.850;21.698;2023-08-06T05:24:13;11.10;;;7.80;;
50309;SDS011;36207;51.850;21.698;2023-08-06T05:26:39;14.20;;;7.70;;
50309;SDS011;36207;51.850;21.698;2023-08-06T05:29:05;13.30;;;7.80;;
50309;SDS011;36207;51.850;21.698;2023-08-06T05:31:31;20.10;;;9.20;;
50309;SDS011;36207;51.850;21.698;2023-08-06T05:33:56;13.00;;;7.70;;
50309;SDS011;36207;51.850;21.698;2023-08-06T05:36:22;14.10;;;8.30;;
50309;SDS011;36207;51.850;21.698;2023-08-06T05:38:48;13.40;;;7.80;;
50309;SDS011;36207;51.850;21.698;2023-08-06T05:41:14;11.50;;;7.30;;
50309;SDS011;36207;51.850;21.698;2023-08-06T05:43:40;15.50;;;7.60;;
50309;SDS011;36207;51.850;21.698;2023-08-06T05:46:06;13.60;;;7.90;;
50309;SDS011;36207;51.850;21.698;2023-08-06T05:48:32;14.40;;;7.70;;
50309;SDS011;36207;51.850;21.698;2023-08-06T05:50:57;16.90;;;8.20;;
50309;SDS011;36207;51.850;21.698;2023-08-06T05:53:24;11.30;;;7.60;;
50309;SDS011;36207;51.850;21.698;2023-08-06T05:55:50;12.10;;;7.90;;
50309;SDS011;36207;51.850;21.698;2023-08-06T05:58:16;13.50;;;7.80;;
50309;SDS011;36207;51.850;21.698;2023-08-06T06:00:42;14.60;;;7.90;;
50309;SDS011;36207;51.850;21.698;2023-08-06T06:03:08;12.30;;;7.50;;
50309;SDS011;36207;51.850;21.698;2023-08-06T06:05:37;14.10;;;7.80;;
50309;SDS011;36207;51.850;21.698;2023-08-06T06:08:04;11.80;;;7.80;;
50309;SDS011;36207;51.850;21.698;2023-08-06T06:10:30;16.90;;;7.60;;
50309;SDS011;36207;51.850;21.698;2023-08-06T06:12:56;10.40;;;7.60;;
50309;SDS011;36207;51.850;21.698;2023-08-06T06:15:22;15.20;;;7.70;;
50309;SDS011;36207;51.850;21.698;2023-08-06T06:17:48;10.30;;;7.50;;
50309;SDS011;36207;51.850;21.698;2023-08-06T06:20:14;16.40;;;8.00;;
50309;SDS011;36207;51.850;21.698;2023-08-06T06:22:40;13.70;;;7.90;;
50309;SDS011;36207;51.850;21.698;2023-08-06T06:25:06;13.00;;;7.70;;
50309;SDS011;36207;51.850;21.698;2023-08-06T06:27:32;16.50;;;7.50;;
50309;SDS011;36207;51.850;21.698;2023-08-06T06:29:58;13.80;;;7.70;;
50309;SDS011;36207;51.850;21.698;2023-08-06T06:32:24;9.40;;;7.60;;
50309;SDS011;36207;51.850;21.698;2023-08-06T06:34:51;10.60;;;7.60;;
50309;SDS011;36207;51.850;21.698;2023-08-06T06:37:16;12.20;;;7.70;;
50309;SDS011;36207;51.850;21.698;2023-08-06T06:39:43;10.60;;;7.80;;
50309;SDS011;36207;51.850;21.698;2023-08-06T06:42:10;11.90;;;7.30;;
50309;SDS011;36207;51.850;21.698;2023-08-06T06:44:35;13.40;;;7.90;;
50309;SDS011;36207;51.850;21.698;2023-08-06T06:47:02;15.70;;;7.40;;
50309;SDS011;36207;51.850;21.698;2023-08-06T06:49:28;12.40;;;7.50;;
50309;SDS011;36207;51.850;21.698;2023-08-06T06:51:54;13.20;;;7.50;;
50309;SDS011;36207;51.850;21.698;2023-08-06T06:54:20;11.90;;;7.90;;
50309;SDS011;36207;51.850;21.698;2023-08-06T06:56:46;14.80;;;7.60;;
50309;SDS011;36207;51.850;21.698;2023-08-06T06:59:12;14.50;;;7.50;;
50309;SDS011;36207;51.850;21.698;2023-08-06T07:01:38;16.20;;;7.50;;
50309;SDS011;36207;51.850;21.698;2023-08-06T07:04:04;14.00;;;8.30;;
50309;SDS011;36207;51.850;21.698;2023-08-06T07:06:31;10.70;;;7.80;;
50309;SDS011;36207;51.850;21.698;2023-08-06T07:08:57;11.30;;;7.90;;
50309;SDS011;36207;51.850;21.698;2023-08-06T07:11:23;13.60;;;7.50;;
50309;SDS011;36207;51.850;21.698;2023-08-06T07:13:49;11.80;;;7.70;;
50309;SDS011;36207;51.850;21.698;2023-08-06T07:16:21;11.70;;;7.60;;
50309;SDS011;36207;51.850;21.698;2023-08-06T07:18:47;11.50;;;7.80;;
50309;SDS011;36207;51.850;21.698;2023-08-06T07:21:13;14.30;;;7.70;;
50309;SDS011;36207;51.850;21.698;2023-08-06T07:23:39;12.40;;;8.10;;
50309;SDS011;36207;51.850;21.698;2023-08-06T07:26:05;12.20;;;7.50;;
50309;SDS011;36207;51.850;21.698;2023-08-06T07:28:31;15.20;;;7.70;;
50309;SDS011;36207;51.850;21.698;2023-08-06T07:30:57;11.60;;;7.20;;
50309;SDS011;36207;51.850;21.698;2023-08-06T07:33:23;12.40;;;7.30;;
50309;SDS011;36207;51.850;21.698;2023-08-06T07:35:49;13.70;;;7.60;;
50309;SDS011;36207;51.850;21.698;2023-08-06T07:38:15;14.40;;;7.50;;
50309;SDS011;36207;51.850;21.698;2023-08-06T07:40:42;12.00;;;7.90;;
50309;SDS011;36207;51.850;21.698;2023-08-06T07:43:08;14.40;;;7.80;;
50309;SDS011;36207;51.850;21.698;2023-08-06T07:45:34;13.40;;;7.60;;
50309;SDS011;36207;51.850;21.698;2023-08-06T07:48:04;11.80;;;7.40;;
50309;SDS011;36207;51.850;21.698;2023-08-06T07:50:31;12.80;;;7.30;;
50309;SDS011;36207;51.850;21.698;2023-08-06T07:52:57;8.70;;;6.90;;
50309;SDS011;36207;51.850;21.698;2023-08-06T07:55:23;14.10;;;7.60;;
50309;SDS011;36207;51.850;21.698;2023-08-06T07:57:49;13.70;;;6.80;;
50309;SDS011;36207;51.850;21.698;2023-08-06T08:00:14;11.60;;;7.30;;
50309;SDS011;36207;51.850;21.698;2023-08-06T08:02:41;12.40;;;7.50;;
50309;SDS011;36207;51.850;21.698;2023-08-06T08:05:06;9.60;;;7.10;;
50309;SDS011;36207;51.850;21.698;2023-08-06T08:07:34;9.20;;;7.40;;
50309;SDS011;36207;51.850;21.698;2023-08-06T08:09:59;13.40;;;7.40;;
50309;SDS011;36207;51.850;21.698;2023-08-06T08:12:25;10.60;;;7.00;;
50309;SDS011;36207;51.850;21.698;2023-08-06T08:14:51;9.30;;;6.90;;
50309;SDS011;36207;51.850;21.698;2023-08-06T08:17:17;11.00;;;6.60;;
50309;SDS011;36207;51.850;21.698;2023-08-06T08:19:43;10.10;;;7.10;;
50309;SDS011;36207;51.850;21.698;2023-08-06T08:22:09;12.40;;;6.50;;
50309;SDS011;36207;51.850;21.698;2023-08-06T08:24:35;15.20;;;7.10;;
50309;SDS011;36207;51.850;21.698;2023-08-06T08:27:01;10.50;;;6.60;;
50309;SDS011;36207;51.850;21.698;2023-08-06T08:29:27;12.90;;;6.70;;
50309;SDS011;36207;51.850;21.698;2023-08-06T08:31:53;11.10;;;6.60;;
50309;SDS011;36207;51.850;21.698;2023-08-06T08:34:19;12.60;;;6.50;;
50309;SDS011;36207;51.850;21.698;2023-08-06T08:36:45;11.00;;;6.80;;
50309;SDS011;36207;51.850;21.698;2023-08-06T08:39:15;13.90;;;6.50;;
50309;SDS011;36207;51.850;21.698;2023-08-06T08:41:41;7.70;;;6.20;;
50309;SDS011;36207;51.850;21.698;2023-08-06T08:44:08;10.20;;;6.80;;
50309;SDS011;36207;51.850;21.698;2023-08-06T08:46:36;8.40;;;6.60;;
50309;SDS011;36207;51.850;21.698;2023-08-06T08:49:04;12.70;;;6.50;;
50309;SDS011;36207;51.850;21.698;2023-08-06T08:51:30;11.90;;;6.60;;
50309;SDS011;36207;51.850;21.698;2023-08-06T08:53:57;10.50;;;6.30;;
50309;SDS011;36207;51.850;21.698;2023-08-06T08:56:23;11.20;;;6.30;;
50309;SDS011;36207;51.850;21.698;2023-08-06T08:58:50;7.90;;;6.10;;
50309;SDS011;36207;51.850;21.698;2023-08-06T09:01:18;11.70;;;6.30;;
50309;SDS011;36207;51.850;21.698;2023-08-06T09:03:46;11.60;;;6.20;;
50309;SDS011;36207;51.850;21.698;2023-08-06T09:06:12;9.50;;;6.10;;
50309;SDS011;36207;51.850;21.698;2023-08-06T09:08:41;14.70;;;6.10;;
50309;SDS011;36207;51.850;21.698;2023-08-06T09:11:16;11.80;;;6.20;;
50309;SDS011;36207;51.850;21.698;2023-08-06T09:13:46;8.40;;;6.10;;
50309;SDS011;36207;51.850;21.698;2023-08-06T09:16:13;8.80;;;6.30;;
50309;SDS011;36207;51.850;21.698;2023-08-06T09:18:39;13.60;;;6.10;;
50309;SDS011;36207;51.850;21.698;2023-08-06T09:21:05;10.50;;;5.90;;
50309;SDS011;36207;51.850;21.698;2023-08-06T09:23:31;12.60;;;6.30;;
50309;SDS011;36207;51.850;21.698;2023-08-06T09:25:59;10.70;;;6.30;;
50309;SDS011;36207;51.850;21.698;2023-08-06T09:28:36;8.10;;;5.90;;
50309;SDS011;36207;51.850;21.698;2023-08-06T09:31:08;10.20;;;5.80;;
50309;SDS011;36207;51.850;21.698;2023-08-06T09:33:38;11.10;;;5.90;;
50309;SDS011;36207;51.850;21.698;2023-08-06T09:36:08;10.50;;;6.20;;
50309;SDS011;36207;51.850;21.698;2023-08-06T09:38:39;9.80;;;5.90;;
50309;SDS011;36207;51.850;21.698;2023-08-06T09:41:06;11.40;;;5.70;;
50309;SDS011;36207;51.850;21.698;2023-08-06T09:43:42;14.00;;;5.80;;
50309;SDS011;36207;51.850;21.698;2023-08-06T09:46:12;13.40;;;6.00;;
50309;SDS011;36207;51.850;21.698;2023-08-06T09:48:39;11.70;;;6.20;;
50309;SDS011;36207;51.850;21.698;2023-08-06T09:51:07;11.90;;;6.30;;
50309;SDS011;36207;51.850;21.698;2023-08-06T09:53:35;8.40;;;5.70;;
50309;SDS011;36207;51.850;21.698;2023-08-06T09:56:03;10.60;;;6.10;;
50309;SDS011;36207;51.850;21.698;2023-08-06T09:58:30;11.50;;;6.20;;
50309;SDS011;36207;51.850;21.698;2023-08-06T10:00:58;10.30;;;5.90;;
50309;SDS011;36207;51.850;21.698;2023-08-06T10:03:25;12.60;;;6.10;;
50309;SDS011;36207;51.850;21.698;2023-08-06T10:05:57;10.20;;;6.00;;
50309;SDS011;36207;51.850;21.698;2023-08-06T10:08:23;9.10;;;6.20;;
50309;SDS011;36207;51.850;21.698;2023-08-06T10:10:49;6.60;;;5.50;;
50309;SDS011;36207;51.850;21.698;2023-08-06T10:13:15;8.10;;;5.80;;
50309;SDS011;36207;51.850;21.698;2023-08-06T10:15:43;8.10;;;5.80;;
50309;SDS011;36207;51.850;21.698;2023-08-06T10:18:10;12.00;;;5.80;;
50309;SDS011;36207;51.850;21.698;2023-08-06T10:20:37;9.50;;;5.70;;
50309;SDS011;36207;51.850;21.698;2023-08-06T10:23:04;7.60;;;5.70;;
50309;SDS011;36207;51.850;21.698;2023-08-06T10:25:33;12.00;;;5.80;;
50309;SDS011;36207;51.850;21.698;2023-08-06T10:28:00;10.70;;;5.90;;
50309;SDS011;36207;51.850;21.698;2023-08-06T10:30:33;9.60;;;6.10;;
50309;SDS011;36207;51.850;21.698;2023-08-06T10:33:06;14.10;;;5.80;;
50309;SDS011;36207;51.850;21.698;2023-08-06T10:35:42;12.90;;;5.80;;
50309;SDS011;36207;51.850;21.698;2023-08-06T10:38:13;8.10;;;6.20;;
50309;SDS011;36207;51.850;21.698;2023-08-06T10:40:40;10.10;;;6.40;;
50309;SDS011;36207;51.850;21.698;2023-08-06T10:43:07;10.90;;;6.20;;
50309;SDS011;36207;51.850;21.698;2023-08-06T10:45:36;11.80;;;6.10;;
50309;SDS011;36207;51.850;21.698;2023-08-06T10:48:03;10.60;;;6.00;;
50309;SDS011;36207;51.850;21.698;2023-08-06T10:50:30;8.50;;;6.00;;
50309;SDS011;36207;51.850;21.698;2023-08-06T10:52:57;9.30;;;5.60;;
50309;SDS011;36207;51.850;21.698;2023-08-06T10:55:29;12.10;;;6.00;;
50309;SDS011;36207;51.850;21.698;2023-08-06T10:57:55;11.30;;;5.80;;
50309;SDS011;36207;51.850;21.698;2023-08-06T11:00:23;8.10;;;5.90;;
50309;SDS011;36207;51.850;21.698;2023-08-06T11:02:49;9.00;;;6.00;;
50309;SDS011;36207;51.850;21.698;2023-08-06T11:05:17;10.60;;;5.80;;
50309;SDS011;36207;51.850;21.698;2023-08-06T11:07:43;9.70;;;6.40;;
50309;SDS011;36207;51.850;21.698;2023-08-06T11:10:10;10.40;;;5.90;;
50309;SDS011;36207;51.850;21.698;2023-08-06T11:12:38;10.70;;;5.90;;
50309;SDS011;36207;51.850;21.698;2023-08-06T11:15:04;8.30;;;5.60;;
50309;SDS011;36207;51.850;21.698;2023-08-06T11:17:32;12.50;;;5.90;;
50309;SDS011;36207;51.850;21.698;2023-08-06T11:20:00;10.10;;;5.70;;
50309;SDS011;36207;51.850;21.698;2023-08-06T11:22:27;7.40;;;5.80;;
50309;SDS011;36207;51.850;21.698;2023-08-06T11:24:53;11.10;;;5.70;;
50309;SDS011;36207;51.850;21.698;2023-08-06T11:27:20;13.40;;;6.10;;
50309;SDS011;36207;51.850;21.698;2023-08-06T11:29:46;14.10;;;5.80;;
50309;SDS011;36207;51.850;21.698;2023-08-06T11:32:12;10.80;;;5.80;;
50309;SDS011;36207;51.850;21.698;2023-08-06T11:34:39;7.00;;;5.60;;
50309;SDS011;36207;51.850;21.698;2023-08-06T11:37:06;8.90;;;5.70;;
50309;SDS011;36207;51.850;21.698;2023-08-06T11:39:33;9.50;;;5.70;;
50309;SDS011;36207;51.850;21.698;2023-08-06T11:41:59;12.70;;;6.20;;
50309;SDS011;36207;51.850;21.698;2023-08-06T11:44:29;13.30;;;6.30;;
50309;SDS011;36207;51.850;21.698;2023-08-06T11:46:58;7.90;;;5.60;;
50309;SDS011;36207;51.850;21.698;2023-08-06T11:52:08;8.70;;;5.80;;
50309;SDS011;36207;51.850;21.698;2023-08-06T11:54:36;6.60;;;5.20;;
50309;SDS011;36207;51.850;21.698;2023-08-06T11:57:04;11.10;;;6.30;;
50309;SDS011;36207;51.850;21.698;2023-08-06T11:59:31;10.60;;;5.90;;
50309;SDS011;36207;51.850;21.698;2023-08-06T12:01:59;10.30;;;5.60;;
50309;SDS011;36207;51.850;21.698;2023-08-06T12:04:27;8.60;;;5.70;;
50309;SDS011;36207;51.850;21.698;2023-08-06T12:06:53;9.60;;;5.90;;
50309;SDS011;36207;51.850;21.698;2023-08-06T12:09:19;9.00;;;5.90;;
50309;SDS011;36207;51.850;21.698;2023-08-06T12:11:46;11.00;;;5.80;;
50309;SDS011;36207;51.850;21.698;2023-08-06T12:14:12;10.70;;;5.90;;
50309;SDS011;36207;51.850;21.698;2023-08-06T12:16:38;12.20;;;5.30;;
50309;SDS011;36207;51.850;21.698;2023-08-06T12:19:04;9.10;;;5.80;;
50309;SDS011;36207;51.850;21.698;2023-08-06T12:21:30;6.90;;;5.40;;
50309;SDS011;36207;51.850;21.698;2023-08-06T12:23:56;10.90;;;5.90;;
50309;SDS011;36207;51.850;21.698;2023-08-06T12:26:21;12.90;;;5.70;;
50309;SDS011;36207;51.850;21.698;2023-08-06T12:28:47;9.90;;;5.60;;
50309;SDS011;36207;51.850;21.698;2023-08-06T12:31:15;10.40;;;5.40;;
50309;SDS011;36207;51.850;21.698;2023-08-06T12:33:40;11.30;;;6.00;;
50309;SDS011;36207;51.850;21.698;2023-08-06T12:36:06;11.00;;;5.80;;
50309;SDS011;36207;51.850;21.698;2023-08-06T12:38:32;10.60;;;5.70;;
50309;SDS011;36207;51.850;21.698;2023-08-06T12:40:59;13.20;;;5.60;;
50309;SDS011;36207;51.850;21.698;2023-08-06T12:43:25;10.50;;;6.00;;
50309;SDS011;36207;51.850;21.698;2023-08-06T12:45:51;8.20;;;5.70;;
50309;SDS011;36207;51.850;21.698;2023-08-06T12:48:17;16.60;;;5.00;;
50309;SDS011;36207;51.850;21.698;2023-08-06T12:50:44;10.50;;;4.70;;
50309;SDS011;36207;51.850;21.698;2023-08-06T12:53:11;6.20;;;4.10;;
50309;SDS011;36207;51.850;21.698;2023-08-06T12:55:37;6.30;;;4.20;;
50309;SDS011;36207;51.850;21.698;2023-08-06T12:58:04;7.40;;;4.10;;
50309;SDS011;36207;51.850;21.698;2023-08-06T13:00:30;4.30;;;3.60;;
50309;SDS011;36207;51.850;21.698;2023-08-06T13:02:57;5.10;;;3.40;;
50309;SDS011;36207;51.850;21.698;2023-08-06T13:05:23;7.20;;;3.50;;
50309;SDS011;36207;51.850;21.698;2023-08-06T13:07:49;5.90;;;3.50;;
50309;SDS011;36207;51.850;21.698;2023-08-06T13:10:16;3.40;;;3.10;;
50309;SDS011;36207;51.850;21.698;2023-08-06T13:12:42;4.70;;;3.50;;
50309;SDS011;36207;51.850;21.698;2023-08-06T13:15:09;5.80;;;3.90;;
50309;SDS011;36207;51.850;21.698;2023-08-06T13:17:35;6.10;;;3.90;;
50309;SDS011;36207;51.850;21.698;2023-08-06T13:20:02;4.30;;;3.90;;
50309;SDS011;36207;51.850;21.698;2023-08-06T13:22:28;6.90;;;4.10;;
50309;SDS011;36207;51.850;21.698;2023-08-06T13:24:54;6.80;;;4.10;;
50309;SDS011;36207;51.850;21.698;2023-08-06T13:27:20;6.50;;;4.50;;
50309;SDS011;36207;51.850;21.698;2023-08-06T13:29:46;5.00;;;4.10;;
50309;SDS011;36207;51.850;21.698;2023-08-06T13:32:13;5.30;;;3.80;;
50309;SDS011;36207;51.850;21.698;2023-08-06T13:34:39;5.90;;;3.90;;
50309;SDS011;36207;51.850;21.698;2023-08-06T13:37:05;5.80;;;4.20;;
50309;SDS011;36207;51.850;21.698;2023-08-06T13:39:30;4.50;;;4.10;;
50309;SDS011;36207;51.850;21.698;2023-08-06T13:41:57;6.30;;;4.40;;
50309;SDS011;36207;51.850;21.698;2023-08-06T13:44:23;5.00;;;4.20;;
50309;SDS011;36207;51.850;21.698;2023-08-06T13:46:49;7.40;;;4.40;;
50309;SDS011;36207;51.850;21.698;2023-08-06T13:49:15;5.00;;;4.40;;
50309;SDS011;36207;51.850;21.698;2023-08-06T13:51:40;7.20;;;4.70;;
50309;SDS011;36207;51.850;21.698;2023-08-06T13:54:06;6.50;;;4.80;;
50309;SDS011;36207;51.850;21.698;2023-08-06T13:56:32;5.10;;;4.40;;
50309;SDS011;36207;51.850;21.698;2023-08-06T13:58:58;7.00;;;4.70;;
50309;SDS011;36207;51.850;21.698;2023-08-06T14:01:24;6.20;;;4.80;;
50309;SDS011;36207;51.850;21.698;2023-08-06T14:03:50;7.70;;;5.00;;
50309;SDS011;36207;51.850;21.698;2023-08-06T14:06:18;6.10;;;4.80;;
50309;SDS011;36207;51.850;21.698;2023-08-06T14:08:44;6.70;;;4.50;;
50309;SDS011;36207;51.850;21.698;2023-08-06T14:11:10;9.70;;;4.60;;
50309;SDS011;36207;51.850;21.698;2023-08-06T14:13:36;8.10;;;4.60;;
50309;SDS011;36207;51.850;21.698;2023-08-06T14:16:02;10.90;;;5.30;;
50309;SDS011;36207;51.850;21.698;2023-08-06T14:18:28;6.90;;;4.40;;
50309;SDS011;36207;51.850;21.698;2023-08-06T14:20:54;5.30;;;4.40;;
50309;SDS011;36207;51.850;21.698;2023-08-06T14:23:20;4.90;;;4.40;;
50309;SDS011;36207;51.850;21.698;2023-08-06T14:25:45;6.90;;;4.30;;